Time;durP1;ratioP1;P1;durP2;ratioP2;P2;SDS_P1;SDS_P2;PMS_P1;PMS_P2;Temp;Humidity;BMP_temperature;BMP_pressure;BME280_temperature;BME280_humidity;BME280_pressure;Samples;Min_cycle;Max_cycle;Signal;HPM_P1;HPM_P2
2022/09/11 00:00:48;;;;;;;29.33;26.47;;;15.60;99.90;;;;;;4995182;28;20483;-73
2022/09/11 00:03:16;;;;;;;29.27;26.47;;;15.50;99.90;;;;;;4994833;28;20042;-73
2022/09/11 00:05:43;;;;;;;27.50;24.90;;;15.50;99.90;;;;;;4994914;28;20491;-72
2022/09/11 00:08:10;;;;;;;27.83;24.97;;;15.50;99.90;;;;;;4994503;28;20364;-73
2022/09/11 00:10:39;;;;;;;27.27;24.57;;;15.50;99.90;;;;;;4994805;28;20086;-73
2022/09/11 00:13:06;;;;;;;27.63;25.07;;;15.50;99.90;;;;;;4994764;28;20090;-73
2022/09/11 00:15:42;;;;;;;29.13;26.33;;;15.50;99.90;;;;;;4994339;28;20548;-73
2022/09/11 00:18:13;;;;;;;26.47;23.93;;;15.40;99.90;;;;;;4995172;28;20450;-73
2022/09/11 00:20:48;;;;;;;26.43;23.90;;;15.50;99.90;;;;;;4995443;28;20046;-73
2022/09/11 00:23:16;;;;;;;27.38;24.63;;;15.50;99.90;;;;;;4995170;28;20117;-73
2022/09/11 00:25:43;;;;;;;27.23;24.63;;;15.50;99.90;;;;;;4993310;28;20100;-73
2022/09/11 00:28:16;;;;;;;27.67;24.87;;;15.50;99.90;;;;;;4994516;28;20049;-72
2022/09/11 00:30:46;;;;;;;26.33;23.73;;;15.50;99.90;;;;;;4994593;28;20051;-73
2022/09/11 00:33:13;;;;;;;27.50;24.87;;;15.50;99.90;;;;;;4994463;28;20057;-73
2022/09/11 00:35:40;;;;;;;27.30;24.77;;;15.50;99.90;;;;;;4994228;28;20073;-73
2022/09/11 00:38:07;;;;;;;27.40;24.83;;;15.50;99.90;;;;;;4994407;28;20042;-73
2022/09/11 00:40:54;;;;;;;28.07;25.57;;;15.50;99.90;;;;;;4993017;28;20121;-73
2022/09/11 00:43:20;;;;;;;27.07;24.40;;;15.50;99.90;;;;;;4993959;28;20057;-73
2022/09/11 00:45:53;;;;;;;26.63;23.93;;;15.50;99.90;;;;;;4994311;28;20176;-73
2022/09/11 00:48:23;;;;;;;27.83;25.00;;;15.60;99.90;;;;;;4993827;28;20101;-73
2022/09/11 00:50:51;;;;;;;26.77;24.23;;;15.60;99.90;;;;;;4993271;28;20053;-73
2022/09/11 00:53:19;;;;;;;26.23;23.90;;;15.60;99.90;;;;;;4994172;28;20046;-75
2022/09/11 00:55:52;;;;;;;26.83;24.13;;;15.60;99.90;;;;;;4994865;28;20050;-73
2022/09/11 00:58:29;;;;;;;25.97;23.47;;;15.60;99.90;;;;;;4994907;28;20050;-73
2022/09/11 01:00:55;;;;;;;25.87;23.23;;;15.60;99.90;;;;;;4993114;28;20090;-73
2022/09/11 01:03:24;;;;;;;25.87;23.40;;;15.50;99.90;;;;;;4993997;28;20042;-73
2022/09/11 01:05:51;;;;;;;26.17;23.53;;;15.50;99.90;;;;;;4994119;28;20058;-72
2022/09/11 01:08:17;;;;;;;23.50;21.03;;;15.50;99.90;;;;;;4992907;28;20042;-72
2022/09/11 01:11:08;;;;;;;24.07;21.87;;;15.50;99.90;;;;;;4994003;28;20109;-72
2022/09/11 01:13:56;;;;;;;21.87;19.87;;;15.50;99.90;;;;;;4993479;28;20410;-73
2022/09/11 01:16:37;;;;;;;24.43;21.83;;;15.50;99.90;;;;;;4993849;28;20050;-73
2022/09/11 01:19:21;;;;;;;22.87;20.77;;;15.40;99.90;;;;;;4993765;28;20065;-72
2022/09/11 01:22:21;;;;;;;24.37;22.07;;;15.40;99.90;;;;;;4992652;28;20049;-72
2022/09/11 01:25:09;;;;;;;20.83;18.93;;;15.40;99.90;;;;;;4992424;28;20069;-72
2022/09/11 01:27:44;;;;;;;23.97;21.57;;;15.30;99.90;;;;;;4993851;28;20050;-72
2022/09/11 01:30:22;;;;;;;23.80;21.60;;;15.30;99.90;;;;;;4994382;28;20136;-72
2022/09/11 01:33:17;;;;;;;23.07;20.90;;;15.30;99.90;;;;;;4993830;28;20056;-72
2022/09/11 01:35:54;;;;;;;23.73;21.40;;;15.30;99.90;;;;;;4990703;28;20054;-72
2022/09/11 01:38:33;;;;;;;24.03;21.73;;;15.20;99.90;;;;;;4993783;28;20321;-72
2022/09/11 01:41:08;;;;;;;21.40;19.40;;;15.20;99.90;;;;;;4993787;28;20042;-72
2022/09/11 01:43:40;;;;;;;;;;;15.20;99.90;;;;;;4993382;28;20418;-74
2022/09/11 01:46:07;;;;;;;22.83;20.63;;;15.20;99.90;;;;;;4994176;28;20355;-72
2022/09/11 01:48:52;;;;;;;24.00;21.70;;;15.10;99.90;;;;;;4993513;28;20050;-72
2022/09/11 01:51:22;;;;;;;21.27;19.35;;;15.10;99.90;;;;;;4992749;28;20480;-73
2022/09/11 01:53:51;;;;;;;22.63;20.43;;;15.10;99.90;;;;;;4996163;28;20085;-72
2022/09/11 01:56:26;;;;;;;22.00;19.80;;;15.00;99.90;;;;;;4997333;28;20435;-73
2022/09/11 01:59:05;;;;;;;21.33;19.13;;;15.00;99.90;;;;;;4997317;28;20040;-73
2022/09/11 02:01:34;;;;;;;20.83;18.87;;;15.00;99.90;;;;;;4997300;28;20082;-73
2022/09/11 02:04:06;;;;;;;22.17;19.97;;;15.00;99.90;;;;;;4996921;28;20112;-73
2022/09/11 02:07:11;;;;;;;20.90;18.80;;;14.90;99.90;;;;;;4997196;28;20538;-73
2022/09/11 02:09:46;;;;;;;20.70;18.57;;;14.90;99.90;;;;;;4997772;28;20101;-73
2022/09/11 02:12:16;;;;;;;20.60;18.40;;;14.90;99.90;;;;;;4997115;28;20046;-72
2022/09/11 02:14:46;;;;;;;20.30;18.40;;;14.80;99.90;;;;;;4997043;28;20050;-73
2022/09/11 02:17:26;;;;;;;19.63;17.83;;;14.80;99.90;;;;;;4980126;28;20050;-73
2022/09/11 02:19:53;;;;;;;20.70;18.70;;;14.90;99.90;;;;;;4996296;28;20482;-73
2022/09/11 02:22:19;;;;;;;19.07;17.27;;;14.80;99.90;;;;;;4996784;28;20077;-73
2022/09/11 02:24:45;;;;;;;21.37;18.20;;;14.80;99.90;;;;;;4997071;28;20054;-73
2022/09/11 02:27:16;;;;;;;18.77;16.93;;;14.80;99.90;;;;;;4996868;28;20061;-73
2022/09/11 02:29:42;;;;;;;18.63;16.73;;;14.80;99.90;;;;;;4996755;28;20046;-73
2022/09/11 02:32:10;;;;;;;18.80;16.90;;;14.80;99.90;;;;;;4995513;28;20497;-73
2022/09/11 02:34:37;;;;;;;18.77;16.97;;;14.80;99.90;;;;;;4996676;28;20467;-73
2022/09/11 02:37:15;;;;;;;19.13;17.17;;;14.70;99.90;;;;;;4995433;28;20054;-73
2022/09/11 02:40:13;;;;;;;17.23;15.63;;;14.70;99.90;;;;;;4996592;28;20115;-73
2022/09/11 02:42:42;;;;;;;17.70;16.00;;;14.70;99.90;;;;;;4996177;28;20054;-73
2022/09/11 02:45:38;;;;;;;17.53;15.83;;;14.70;99.90;;;;;;4996447;28;20050;-73
2022/09/11 02:48:42;;;;;;;16.93;15.33;;;14.70;99.90;;;;;;4996909;28;20046;-73
2022/09/11 02:51:14;;;;;;;22.70;15.73;;;14.60;99.90;;;;;;4979241;28;20471;-73
2022/09/11 02:54:07;;;;;;;17.43;15.60;;;14.60;99.90;;;;;;4995993;28;20549;-72
2022/09/11 02:56:42;;;;;;;18.20;16.37;;;14.70;99.90;;;;;;4996237;28;20066;-73
2022/09/11 02:59:20;;;;;;;18.05;15.88;;;14.60;99.90;;;;;;4996711;28;20467;-72
2022/09/11 03:01:59;;;;;;;17.53;15.83;;;14.60;99.90;;;;;;4996477;28;20172;-73
2022/09/11 03:04:24;;;;;;;17.93;16.13;;;14.50;99.90;;;;;;4996230;28;20641;-73
2022/09/11 03:06:52;;;;;;;18.83;16.83;;;14.50;99.90;;;;;;4996877;28;20117;-73
2022/09/11 03:09:18;;;;;;;18.83;17.00;;;14.50;99.90;;;;;;4994725;28;20042;-73
2022/09/11 03:11:44;;;;;;;16.77;15.17;;;14.40;99.90;;;;;;4996027;28;20042;-73
2022/09/11 03:14:11;;;;;;;16.10;14.43;;;14.40;99.90;;;;;;4996217;28;20294;-73
2022/09/11 03:16:36;;;;;;;15.50;14.00;;;14.40;99.90;;;;;;4996748;28;20356;-73
2022/09/11 03:19:03;;;;;;;15.17;13.67;;;14.40;99.90;;;;;;4996369;28;20357;-72
2022/09/11 03:21:29;;;;;;;13.93;12.33;;;14.40;99.90;;;;;;4995827;28;20096;-72
2022/09/11 03:23:56;;;;;;;14.37;12.90;;;14.40;99.90;;;;;;4995478;28;20305;-73
2022/09/11 03:26:22;;;;;;;15.03;12.03;;;14.40;99.90;;;;;;4996082;28;20348;-73
2022/09/11 03:28:49;;;;;;;14.37;12.97;;;14.40;99.90;;;;;;4995612;28;20344;-73
2022/09/11 03:31:15;;;;;;;13.57;12.37;;;14.40;99.90;;;;;;4996194;28;20285;-73
2022/09/11 03:33:41;;;;;;;14.20;12.33;;;14.40;99.90;;;;;;4994609;28;20293;-72
2022/09/11 03:36:08;;;;;;;12.77;11.37;;;14.40;99.90;;;;;;4995561;28;20290;-73
2022/09/11 03:38:34;;;;;;;13.80;12.47;;;14.40;99.90;;;;;;4994497;28;20498;-74
2022/09/11 03:41:00;;;;;;;14.07;12.67;;;14.40;99.90;;;;;;4994397;28;20085;-73
2022/09/11 03:43:26;;;;;;;13.13;11.67;;;14.40;99.90;;;;;;4995969;28;20061;-73
2022/09/11 03:45:52;;;;;;;13.37;12.07;;;14.30;99.90;;;;;;4978181;28;20293;-73
2022/09/11 03:48:18;;;;;;;13.37;12.07;;;14.40;99.90;;;;;;4995234;28;20050;-73
2022/09/11 03:50:44;;;;;;;12.97;11.63;;;14.30;99.90;;;;;;4995179;28;20774;-73
2022/09/11 03:53:10;;;;;;;12.40;11.20;;;14.40;99.90;;;;;;4995239;28;20284;-73
2022/09/11 03:55:37;;;;;;;12.93;11.50;;;14.30;99.90;;;;;;4994483;28;20470;-77
2022/09/11 03:58:03;;;;;;;12.53;11.23;;;14.30;99.90;;;;;;4995406;28;20380;-73
2022/09/11 04:00:29;;;;;;;12.50;11.30;;;14.30;99.90;;;;;;4977915;28;20348;-73
2022/09/11 04:02:55;;;;;;;12.43;11.13;;;14.30;99.90;;;;;;4994761;28;20273;-73
2022/09/11 04:05:23;;;;;;;11.97;10.53;;;14.30;99.90;;;;;;4995535;28;20057;-73
2022/09/11 04:07:50;;;;;;;11.90;10.70;;;14.30;99.90;;;;;;4995450;28;20352;-73
2022/09/11 04:10:16;;;;;;;11.93;10.73;;;14.20;99.90;;;;;;4995409;28;20701;-72
2022/09/11 04:12:43;;;;;;;10.77;9.67;;;14.20;99.90;;;;;;4994657;28;20340;-72
2022/09/11 04:15:09;;;;;;;11.93;9.83;;;14.20;99.90;;;;;;4994705;28;20047;-73
2022/09/11 04:17:35;;;;;;;12.30;9.90;;;14.20;99.90;;;;;;4994683;28;20343;-73
2022/09/11 04:20:02;;;;;;;11.07;9.83;;;14.20;99.90;;;;;;4994768;28;20506;-73
2022/09/11 04:22:28;;;;;;;10.90;9.80;;;14.20;99.90;;;;;;4994716;28;20451;-73
2022/09/11 04:24:54;;;;;;;10.90;9.80;;;14.20;99.90;;;;;;4993009;28;20380;-73
2022/09/11 04:27:22;;;;;;;10.80;9.43;;;14.20;99.90;;;;;;4993953;28;20116;-73
2022/09/11 04:29:48;;;;;;;10.27;9.17;;;14.20;99.90;;;;;;4995081;28;20049;-73
2022/09/11 04:32:14;;;;;;;9.57;8.43;;;14.20;99.90;;;;;;4995300;28;20293;-73
2022/09/11 04:34:40;;;;;;;10.67;9.57;;;14.20;99.90;;;;;;4995015;28;20611;-73
2022/09/11 04:37:06;;;;;;;11.90;9.83;;;14.10;99.90;;;;;;4994418;28;20050;-73
2022/09/11 04:39:33;;;;;;;10.60;9.50;;;14.10;99.90;;;;;;4995175;28;20281;-73
2022/09/11 04:42:01;;;;;;;10.17;8.80;;;14.20;99.90;;;;;;4994409;28;20148;-73
2022/09/11 04:44:31;;;;;;;10.47;9.43;;;14.10;99.90;;;;;;4994854;28;20285;-73
2022/09/11 04:46:57;;;;;;;13.80;10.43;;;14.10;99.90;;;;;;4993804;28;20293;-73
2022/09/11 04:49:22;;;;;;;11.13;10.03;;;14.00;99.90;;;;;;4994988;28;20305;-73
2022/09/11 04:51:48;;;;;;;10.60;9.00;;;14.00;99.90;;;;;;4994273;28;20426;-73
2022/09/11 04:54:17;;;;;;;10.57;9.47;;;14.00;99.90;;;;;;4993645;28;20050;-73
2022/09/11 04:56:43;;;;;;;12.20;9.60;;;14.00;99.90;;;;;;4994245;28;20290;-73
2022/09/11 04:59:14;;;;;;;10.80;9.70;;;13.90;99.90;;;;;;4994241;28;20282;-73
2022/09/11 05:01:41;;;;;;;12.67;8.63;;;13.90;99.90;;;;;;4994636;28;20294;-73
2022/09/11 05:04:09;;;;;;;8.90;8.00;;;13.90;99.90;;;;;;4993153;28;20304;-73
2022/09/11 05:06:36;;;;;;;9.80;8.40;;;13.90;99.90;;;;;;4994038;28;20352;-73
2022/09/11 05:09:07;;;;;;;10.90;8.10;;;13.90;99.90;;;;;;4993913;28;20723;-73
2022/09/11 05:11:33;;;;;;;8.90;8.00;;;13.90;99.90;;;;;;4992912;28;20277;-73
2022/09/11 05:13:59;;;;;;;10.57;7.80;;;13.90;99.90;;;;;;4994198;28;20293;-73
2022/09/11 05:16:27;;;;;;;10.53;8.10;;;13.90;99.90;;;;;;4993802;28;20294;-73
2022/09/11 05:18:53;;;;;;;8.13;7.33;;;13.90;99.90;;;;;;4993946;28;20043;-73
2022/09/11 05:21:23;;;;;;;8.87;7.53;;;14.00;99.90;;;;;;4993950;28;20285;-73
2022/09/11 05:23:52;;;;;;;9.10;8.17;;;13.90;99.90;;;;;;4993755;28;20293;-73
2022/09/11 05:26:23;;;;;;;8.73;7.47;;;14.00;99.90;;;;;;4993679;28;20751;-73
2022/09/11 05:29:01;;;;;;;9.23;7.73;;;14.00;99.90;;;;;;4997360;28;20711;-73
2022/09/11 05:31:27;;;;;;;8.53;7.67;;;14.00;99.90;;;;;;4997567;28;20773;-73
2022/09/11 05:33:54;;;;;;;8.53;7.63;;;14.00;99.90;;;;;;4996701;28;20301;-73
2022/09/11 05:36:20;;;;;;;9.13;8.23;;;14.00;99.90;;;;;;4997112;28;20372;-73
2022/09/11 05:38:47;;;;;;;10.43;9.07;;;14.00;99.90;;;;;;4996780;28;20297;-72
2022/09/11 05:41:14;;;;;;;13.73;8.40;;;14.00;99.90;;;;;;4997621;28;20289;-73
2022/09/11 05:43:41;;;;;;;8.37;7.57;;;14.10;99.90;;;;;;4998172;28;20284;-73
2022/09/11 05:46:15;;;;;;;9.57;7.50;;;14.10;99.90;;;;;;4997541;28;20379;-73
2022/09/11 05:48:41;;;;;;;9.20;8.40;;;14.10;99.90;;;;;;4997860;28;20635;-73
2022/09/11 05:51:11;;;;;;;8.27;7.40;;;14.20;99.90;;;;;;4997471;28;20289;-73
2022/09/11 05:53:37;;;;;;;8.90;7.50;;;14.20;99.90;;;;;;4996480;28;20792;-73
2022/09/11 05:56:08;;;;;;;8.20;7.40;;;14.20;99.90;;;;;;4997408;28;20304;-73
2022/09/11 05:58:35;;;;;;;8.20;7.40;;;14.30;99.90;;;;;;4997189;28;20301;-73
2022/09/11 06:01:10;;;;;;;8.07;7.27;;;14.30;99.90;;;;;;4996400;28;20356;-73
2022/09/11 06:03:36;;;;;;;8.60;7.70;;;14.40;99.90;;;;;;4997830;28;20282;-73
2022/09/11 06:06:04;;;;;;;8.83;8.00;;;14.50;99.90;;;;;;4997510;28;20050;-73
2022/09/11 06:08:33;;;;;;;8.33;7.53;;;14.50;99.90;;;;;;4997115;28;20340;-73
2022/09/11 06:11:00;;;;;;;8.23;7.43;;;14.60;99.90;;;;;;4997433;28;20285;-73
2022/09/11 06:13:30;;;;;;;9.80;8.07;;;14.70;99.90;;;;;;4997943;28;20285;-73
2022/09/11 06:15:56;;;;;;;9.30;7.93;;;14.90;99.90;;;;;;4997043;28;20475;-73
2022/09/11 06:18:22;;;;;;;8.73;7.80;;;15.00;99.90;;;;;;4997063;28;20289;-73
2022/09/11 06:21:01;;;;;;;8.13;7.20;;;15.40;99.90;;;;;;4997027;28;20053;-73
2022/09/11 06:23:27;;;;;;;7.40;6.70;;;15.50;99.90;;;;;;4996715;28;20058;-73
2022/09/11 06:26:01;;;;;;;9.60;6.97;;;15.50;99.90;;;;;;4996915;28;20062;-76
2022/09/11 06:28:27;;;;;;;7.93;6.90;;;15.50;99.90;;;;;;4997671;28;20050;-73
2022/09/11 06:30:52;;;;;;;8.00;7.20;;;15.50;99.90;;;;;;4995669;28;20482;-72
2022/09/11 06:33:21;;;;;;;8.83;7.60;;;15.50;99.90;;;;;;4996626;28;20053;-73
2022/09/11 06:36:00;;;;;;;8.67;7.63;;;15.80;99.90;;;;;;4996770;28;20050;-73
2022/09/11 06:38:27;;;;;;;11.00;6.50;;;17.10;99.90;;;;;;4996521;28;20038;-73
2022/09/11 06:40:53;;;;;;;6.77;5.73;;;18.30;99.90;;;;;;4996551;28;20042;-73
2022/09/11 06:43:19;;;;;;;6.03;5.43;;;19.60;99.90;;;;;;4996562;28;20138;-73
2022/09/11 06:45:47;;;;;;;6.47;5.27;;;20.50;99.90;;;;;;4979702;28;20081;-73
2022/09/11 06:48:14;;;;;;;5.53;4.83;;;21.00;99.90;;;;;;4996570;28;20054;-74
2022/09/11 06:50:40;;;;;;;6.17;4.57;;;21.50;99.90;;;;;;4995675;28;20120;-73
2022/09/11 06:53:07;;;;;;;8.90;4.93;;;21.80;99.90;;;;;;4996876;28;20054;-74
2022/09/11 06:55:33;;;;;;;7.43;4.50;;;;;;;;;;4995296;28;20054;-73
2022/09/11 06:58:01;;;;;;;6.97;4.87;;;;;;;;;;4996382;28;20042;-73
2022/09/11 07:00:27;;;;;;;7.27;4.67;;;;;;;;;;4996355;28;20561;-72
2022/09/11 07:02:53;;;;;;;6.30;4.47;;;23.40;99.90;;;;;;4996332;28;20042;-73
2022/09/11 07:05:21;;;;;;;10.23;4.90;;;;;;;;;;4994981;28;20057;-72
2022/09/11 07:07:49;;;;;;;6.20;4.20;;;;;;;;;;4996358;28;20050;-73
2022/09/11 07:10:15;;;;;;;6.97;4.73;;;;;;;;;;4996233;28;20061;-75
2022/09/11 07:12:41;;;;;;;6.77;4.23;;;25.80;94.60;;;;;;4996178;28;20085;-74
2022/09/11 07:15:08;;;;;;;6.90;4.00;;;26.00;99.90;;;;;;4997796;28;20511;-74
2022/09/11 07:17:35;;;;;;;7.90;4.20;;;26.40;99.50;;;;;;4996111;28;20093;-74
2022/09/11 07:20:02;;;;;;;6.07;3.70;;;27.00;93.70;;;;;;4994989;28;20054;-76
2022/09/11 07:22:29;;;;;;;5.57;4.20;;;27.30;92.50;;;;;;4995993;28;20196;-74
2022/09/11 07:24:56;;;;;;;6.43;4.57;;;27.60;87.30;;;;;;4996230;28;20058;-76
2022/09/11 07:27:22;;;;;;;5.63;3.73;;;27.90;91.10;;;;;;4996331;28;20089;-76
2022/09/11 07:29:48;;;;;;;5.83;3.60;;;;;;;;;;4993985;28;20147;-74
2022/09/11 07:32:14;;;;;;;5.60;3.78;;;;;;;;;;4996221;28;20383;-75
2022/09/11 07:34:40;;;;;;;5.68;4.00;;;;;;;;;;4996497;28;20129;-74
2022/09/11 07:37:07;;;;;;;7.28;4.03;;;;;;;;;;4995659;28;20096;-74
2022/09/11 07:39:33;;;;;;;5.43;4.05;;;;;;;;;;4994949;28;20046;-74
2022/09/11 07:41:59;;;;;;;5.85;3.85;;;28.40;67.40;;;;;;4995817;28;20080;-74
2022/09/11 07:44:24;;;;;;;6.00;3.72;;;28.30;75.90;;;;;;4995510;28;20129;-74
2022/09/11 07:46:50;;;;;;;5.13;3.80;;;27.60;81.70;;;;;;4996112;28;20046;-74
2022/09/11 07:49:16;;;;;;;5.88;4.18;;;;;;;;;;4995311;28;20129;-73
2022/09/11 07:51:42;;;;;;;7.55;3.80;;;26.00;82.50;;;;;;4994424;28;20129;-73
2022/09/11 07:54:11;;;;;;;5.65;3.25;;;25.50;99.50;;;;;;4994073;28;20479;-74
2022/09/11 07:56:37;;;;;;;5.82;3.75;;;24.70;93.00;;;;;;4994073;28;20085;-73
2022/09/11 07:59:06;;;;;;;6.45;4.05;;;;;;;;;;4994202;28;20478;-73
2022/09/11 08:01:32;;;;;;;6.40;3.97;;;;;;;;;;4995106;28;20042;-74
2022/09/11 08:04:00;;;;;;;6.70;4.10;;;;;;;;;;4995071;28;20122;-73
2022/09/11 08:06:27;;;;;;;6.03;3.93;;;;;;;;;;4994982;28;20109;-74
2022/09/11 08:08:54;;;;;;;5.83;4.10;;;;;;;;;;4994934;28;20047;-73
2022/09/11 08:11:21;;;;;;;5.77;4.23;;;;;;;;;;4994954;28;20054;-73
2022/09/11 08:13:51;;;;;;;5.60;3.43;;;;;;;;;;4995490;28;20061;-73
2022/09/11 08:16:18;;;;;;;5.77;3.73;;;;;;;;;;4995349;28;20054;-73
2022/09/11 08:18:44;;;;;;;6.83;3.40;;;;;;;;;;4993898;28;20077;-74
2022/09/11 08:21:10;;;;;;;5.67;2.87;;;;;;;;;;4995458;28;20050;-74
2022/09/11 08:23:39;;;;;;;7.30;3.80;;;;;;;;;;4994418;28;20046;-73
2022/09/11 08:26:10;;;;;;;9.47;4.30;;;;;;;;;;4995360;28;20054;-74
2022/09/11 08:28:37;;;;;;;6.10;3.20;;;;;;;;;;4994503;28;20402;-74
2022/09/11 08:31:04;;;;;;;8.90;5.83;;;;;;;;;;4994852;28;20116;-74
2022/09/11 08:33:34;;;;;;;8.83;4.93;;;;;;;;;;4995217;28;20054;-73
2022/09/11 08:36:01;;;;;;;7.47;5.10;;;;;;;;;;4995059;28;20046;-73
2022/09/11 08:38:28;;;;;;;8.60;5.07;;;;;;;;;;4993802;28;20121;-74
2022/09/11 08:40:54;;;;;;;5.53;4.23;;;;;;;;;;4994164;28;20109;-74
2022/09/11 08:43:26;;;;;;;7.70;4.57;;;;;;;;;;4994645;28;20090;-74
2022/09/11 08:45:55;;;;;;;6.97;4.17;;;;;;;;;;4993367;28;20049;-74
2022/09/11 08:48:23;;;;;;;6.20;3.40;;;;;;;;;;4994725;28;20085;-75
2022/09/11 08:50:49;;;;;;;7.97;3.93;;;;;;;;;;4994603;28;20086;-75
2022/09/11 08:53:17;;;;;;;6.60;4.17;;;;;;;;;;4992980;28;20050;-75
2022/09/11 08:55:54;;;;;;;6.73;3.77;;;21.70;99.90;;;;;;4994788;28;20049;-75
2022/09/11 08:58:43;;;;;;;5.20;3.30;;;21.60;99.90;;;;;;4977358;28;20097;-78
2022/09/11 09:01:34;;;;;;;6.90;3.17;;;21.60;99.90;;;;;;4994250;28;20061;-75
2022/09/11 09:04:49;;;;;;;7.43;3.80;;;21.60;99.90;;;;;;4994228;28;20090;-75
2022/09/11 09:07:47;;;;;;;7.00;3.83;;;21.60;99.90;;;;;;4994710;28;20057;-73
2022/09/11 09:10:26;;;;;;;6.30;4.03;;;21.70;99.90;;;;;;4993158;28;20132;-73
2022/09/11 09:13:24;;;;;;;8.73;3.30;;;21.80;99.90;;;;;;4994275;28;20514;-73
2022/09/11 09:16:01;;;;;;;8.23;3.83;;;21.70;99.90;;;;;;4977641;28;20062;-72
2022/09/11 09:18:35;;;;;;;6.97;3.67;;;21.60;99.90;;;;;;4993794;28;20427;-72
2022/09/11 09:21:12;;;;;;;8.90;3.78;;;21.40;99.90;;;;;;4993977;28;20100;-73
2022/09/11 09:23:52;;;;;;;7.00;3.33;;;21.30;99.90;;;;;;4993111;28;20050;-72
2022/09/11 09:26:19;;;;;;;7.13;3.47;;;21.20;99.90;;;;;;4993746;28;20054;-73
2022/09/11 09:28:49;;;;;;;7.27;3.27;;;21.00;99.90;;;;;;4993499;28;20503;-73
2022/09/11 09:31:19;;;;;;;6.63;3.17;;;20.80;99.90;;;;;;4993837;28;20051;-72
2022/09/11 09:33:51;;;;;;;6.40;3.57;;;20.70;99.90;;;;;;4993669;28;20078;-72
2022/09/11 09:36:42;;;;;;;6.03;3.60;;;20.60;99.90;;;;;;4994296;28;20394;-71
2022/09/11 09:39:16;;;;;;;6.80;4.00;;;20.50;99.90;;;;;;4993605;28;20089;-72
2022/09/11 09:41:44;;;;;;;6.40;3.97;;;20.40;99.90;;;;;;4993472;28;20487;-72
2022/09/11 09:44:27;;;;;;;6.97;4.40;;;20.30;99.90;;;;;;4992727;28;20513;-72
2022/09/11 09:46:54;;;;;;;7.73;3.90;;;20.30;99.90;;;;;;4992523;28;20073;-72
2022/09/11 09:49:33;;;;;;;6.87;3.50;;;20.30;99.90;;;;;;4993285;28;20491;-77
2022/09/11 09:52:09;;;;;;;7.83;3.30;;;20.40;99.90;;;;;;4993767;28;20098;-73
2022/09/11 09:54:35;;;;;;;5.83;3.57;;;20.50;99.90;;;;;;4994297;28;20124;-73
2022/09/11 09:57:09;;;;;;;6.73;3.63;;;20.60;99.90;;;;;;4993902;28;20046;-71
2022/09/11 09:59:46;;;;;;;6.25;3.30;;;20.70;99.90;;;;;;4993724;28;20483;-72
2022/09/11 10:02:12;;;;;;;6.77;3.30;;;20.70;99.90;;;;;;4993752;28;20046;-71
2022/09/11 10:04:38;;;;;;;8.57;3.70;;;20.80;99.90;;;;;;4993553;28;20046;-71
2022/09/11 10:07:20;;;;;;;7.73;2.50;;;20.90;99.90;;;;;;4993648;28;20050;-72
2022/09/11 10:09:57;;;;;;;4.53;1.80;;;20.90;99.90;;;;;;4993805;28;20368;-72
2022/09/11 10:12:26;;;;;;;8.77;2.40;;;20.90;99.90;;;;;;4992348;28;20062;-74
2022/09/11 10:15:01;;;;;;;7.17;2.23;;;21.00;99.90;;;;;;4995545;28;20130;-74
2022/09/11 10:17:32;;;;;;;4.25;1.90;;;21.00;99.90;;;;;;4996197;28;20057;-74
2022/09/11 10:20:22;;;;;;;6.57;2.20;;;21.10;99.90;;;;;;4997079;28;20038;-72
2022/09/11 10:22:52;;;;;;;6.03;2.20;;;21.10;99.90;;;;;;4997003;28;20561;-72
2022/09/11 10:25:26;;;;;;;4.43;2.00;;;21.00;99.90;;;;;;4996725;28;20050;-72
2022/09/11 10:28:02;;;;;;;6.78;2.00;;;21.00;99.90;;;;;;4997169;28;20383;-72
2022/09/11 10:30:32;;;;;;;5.37;2.03;;;21.00;99.90;;;;;;4995632;28;20046;-74
2022/09/11 10:33:01;;;;;;;5.27;1.93;;;21.10;99.90;;;;;;4996835;28;20054;-75
2022/09/11 10:35:29;;;;;;;4.30;2.03;;;21.00;99.90;;;;;;4995794;28;20059;-75
2022/09/11 10:38:17;;;;;;;7.27;2.30;;;21.00;99.90;;;;;;4996709;28;20109;-71
2022/09/11 10:40:57;;;;;;;7.00;2.43;;;21.00;99.90;;;;;;4995696;28;20050;-74
2022/09/11 10:43:30;;;;;;;4.80;1.77;;;20.90;99.90;;;;;;4995688;28;20050;-77
2022/09/11 10:46:24;;;;;;;4.57;1.60;;;21.00;99.90;;;;;;4996669;28;20506;-76
2022/09/11 10:49:15;;;;;;;4.60;1.80;;;21.10;99.90;;;;;;4992669;28;20051;-75
2022/09/11 10:51:55;;;;;;;4.47;2.00;;;21.20;99.90;;;;;;4978744;28;20509;-75
2022/09/11 10:54:30;;;;;;;4.93;2.20;;;21.30;99.90;;;;;;4996555;28;20042;-74
2022/09/11 10:56:59;;;;;;;5.88;1.85;;;21.30;99.90;;;;;;4979028;28;20076;-74
2022/09/11 11:00:05;;;;;;;5.13;2.43;;;21.30;99.90;;;;;;4996363;28;20054;-76
2022/09/11 11:02:39;;;;;;;3.87;1.80;;;21.40;99.90;;;;;;4957358;28;20162;-75
2022/09/11 11:05:18;;;;;;;6.28;1.90;;;21.50;99.90;;;;;;4995628;28;20046;-75
2022/09/11 11:07:44;;;;;;;4.50;1.87;;;21.60;99.90;;;;;;4979626;28;20046;-75
2022/09/11 11:10:50;;;;;;;6.17;2.13;;;21.70;99.90;;;;;;4978688;28;20065;-76
2022/09/11 11:13:24;;;;;;;6.93;2.10;;;21.80;99.90;;;;;;4983545;28;20072;-75
2022/09/11 11:16:23;;;;;;;5.20;2.10;;;21.90;99.90;;;;;;4996588;28;20141;-75
2022/09/11 11:19:12;;;;;;;4.37;2.00;;;21.90;99.90;;;;;;4952368;28;20438;-73
2022/09/11 11:22:16;;;;;;;4.00;1.60;;;22.10;99.90;;;;;;4994791;28;20054;-73
2022/09/11 11:24:47;;;;;;;5.13;2.30;;;22.20;99.90;;;;;;4965114;28;20054;-73
2022/09/11 11:27:19;;;;;;;6.00;2.10;;;22.40;99.90;;;;;;4995500;28;20133;-73
2022/09/11 11:30:02;;;;;;;5.93;1.97;;;22.40;99.90;;;;;;4978573;28;20113;-73
2022/09/11 11:32:44;;;;;;;5.43;1.90;;;22.40;99.90;;;;;;4995842;28;20561;-73
2022/09/11 11:35:28;;;;;;;4.60;1.93;;;22.40;99.90;;;;;;4994219;28;20050;-71
2022/09/11 11:38:03;;;;;;;5.00;1.90;;;22.30;99.90;;;;;;4995020;28;20132;-71
2022/09/11 11:40:55;;;;;;;4.40;2.10;;;22.30;99.90;;;;;;4994352;28;20050;-72
2022/09/11 11:43:26;;;;;;;5.40;2.20;;;22.30;99.90;;;;;;4994380;28;20182;-71
2022/09/11 11:46:01;;;;;;;5.17;1.87;;;22.20;99.90;;;;;;4994814;28;20176;-72
2022/09/11 11:48:40;;;;;;;5.10;1.90;;;22.20;99.90;;;;;;4995095;28;20125;-73
2022/09/11 11:51:09;;;;;;;5.23;2.33;;;22.10;99.90;;;;;;4994427;28;20050;-73
2022/09/11 11:53:44;;;;;;;5.07;2.23;;;22.10;99.90;;;;;;4994033;28;20129;-72
2022/09/11 11:56:27;;;;;;;6.72;2.20;;;22.00;99.90;;;;;;4994583;28;20054;-72
2022/09/11 11:59:18;;;;;;;5.77;2.30;;;21.90;99.90;;;;;;4994464;28;20200;-74
2022/09/11 12:02:08;;;;;;;5.37;2.30;;;21.90;99.90;;;;;;4994575;28;20082;-72
2022/09/11 12:04:48;;;;;;;5.23;2.10;;;21.80;99.90;;;;;;4994433;28;20500;-72
2022/09/11 12:07:29;;;;;;;5.83;2.27;;;21.70;99.90;;;;;;4994751;28;20583;-72
2022/09/11 12:09:57;;;;;;;3.27;1.93;;;21.60;99.90;;;;;;4994781;28;20045;-72
2022/09/11 12:12:29;;;;;;;6.30;2.53;;;21.50;99.90;;;;;;4994963;28;20050;-72
2022/09/11 12:15:16;;;;;;;7.30;3.10;;;21.50;99.90;;;;;;4994948;28;20042;-71
2022/09/11 12:17:42;;;;;;;3.97;1.80;;;21.40;99.90;;;;;;4994813;28;20046;-72
2022/09/11 12:20:29;;;;;;;5.70;2.47;;;21.30;99.90;;;;;;4993861;28;20056;-73
2022/09/11 12:22:55;;;;;;;4.73;1.90;;;21.30;99.90;;;;;;4994819;28;20129;-73
2022/09/11 12:25:20;;;;;;;4.53;2.30;;;21.40;99.90;;;;;;4994028;28;20137;-74
2022/09/11 12:27:47;;;;;;;4.93;2.03;;;21.40;99.90;;;;;;4994795;28;20050;-74
2022/09/11 12:30:22;;;;;;;6.37;2.87;;;21.50;99.90;;;;;;4994442;28;20108;-74
2022/09/11 12:33:00;;;;;;;4.85;2.03;;;21.70;99.90;;;;;;4994111;28;20415;-74
2022/09/11 12:35:31;;;;;;;7.70;1.90;;;21.80;99.90;;;;;;4993325;28;20057;-74
2022/09/11 12:38:03;;;;;;;4.87;1.90;;;21.80;99.90;;;;;;4992507;28;20510;-74
2022/09/11 12:40:51;;;;;;;5.17;2.23;;;21.90;99.90;;;;;;4993810;28;20196;-74
2022/09/11 12:43:34;;;;;;;4.07;2.00;;;22.00;99.90;;;;;;4993425;28;20089;-74
2022/09/11 12:46:07;;;;;;;6.10;1.90;;;22.00;99.90;;;;;;4995305;28;20105;-74
2022/09/11 12:48:49;;;;;;;3.47;1.53;;;22.00;99.90;;;;;;4994390;28;20255;-74
2022/09/11 12:51:26;;;;;;;5.83;2.23;;;22.10;99.90;;;;;;4993195;28;20046;-73
2022/09/11 12:53:59;;;;;;;4.83;1.90;;;22.30;99.90;;;;;;4994376;28;20479;-74
2022/09/11 12:56:27;;;;;;;5.13;1.80;;;22.40;99.90;;;;;;4994839;28;20088;-73
2022/09/11 12:59:21;;;;;;;4.93;2.20;;;22.50;99.90;;;;;;4993832;28;20038;-74
2022/09/11 13:01:46;;;;;;;5.40;1.93;;;22.60;99.90;;;;;;4994755;28;20128;-73
2022/09/11 13:04:15;;;;;;;4.53;2.23;;;22.60;99.90;;;;;;4992643;28;20081;-73
2022/09/11 13:06:55;;;;;;;5.17;1.90;;;22.50;99.90;;;;;;4992974;28;20050;-73
2022/09/11 13:09:46;;;;;;;5.07;2.00;;;22.40;99.90;;;;;;4992897;28;20541;-75
2022/09/11 13:12:24;;;;;;;6.47;2.27;;;22.30;99.90;;;;;;4993210;28;20078;-73
2022/09/11 13:14:53;;;;;;;4.93;2.20;;;22.30;99.90;;;;;;4992949;28;20061;-73
2022/09/11 13:17:29;;;;;;;4.40;1.90;;;22.20;99.90;;;;;;4977665;28;20089;-73